< Typhoon 197130 1971 Season Typhoon 197132 >
Typhoon 197131 (ELAINE)
General InformationTrack Information on Google Maps || Disaster Info.ResourceGoogle EarthGE AnimationAtom FeedGeoJSON
Detalied Best Track (Time Zone = UTC)
Year Month Day Hour Lat. Long. Pressure (hPa) Wind (kt) Class Image Chart
1971 10 1 00 6.5 133.5 1006 0 2 -- Chart
1971 10 1 06 7.0 133.0 1004 0 2 -- Chart
1971 10 1 12 7.5 132.5 1004 0 2 -- Chart
1971 10 1 18 8.4 132.0 1004 0 2 -- Chart
1971 10 2 00 9.2 131.5 1002 0 2 -- Chart
1971 10 2 06 10.0 131.0 1000 0 2 -- Chart
1971 10 2 12 11.0 130.0 1000 0 2 -- Chart
1971 10 2 18 11.6 129.0 998 0 2 -- Chart
1971 10 3 00 12.0 127.7 998 0 2 -- Chart
1971 10 3 06 12.2 126.2 998 0 2 -- Chart
1971 10 3 12 12.3 124.8 994 0 9 -- Chart
1971 10 3 18 12.9 123.7 990 0 9 -- Chart
1971 10 4 00 13.0 122.2 985 0 9 -- Chart
1971 10 4 06 13.0 120.8 990 0 9 -- Chart
1971 10 4 12 13.3 120.0 990 0 9 -- Chart
1971 10 4 18 14.7 119.0 990 0 9 -- Chart
1971 10 5 00 15.2 117.5 985 0 9 -- Chart
1971 10 5 06 14.7 116.8 980 0 9 -- Chart
1971 10 5 12 14.2 116.3 975 0 9 -- Chart
1971 10 5 18 14.6 116.5 975 0 9 -- Chart
1971 10 6 00 15.0 116.0 970 0 9 -- Chart
1971 10 6 06 15.2 116.2 970 0 9 -- Chart
1971 10 6 12 15.5 115.8 975 0 9 -- Chart
1971 10 6 18 16.2 115.5 965 0 9 -- Chart
1971 10 7 00 16.5 115.5 965 0 9 -- Chart
1971 10 7 06 16.8 115.0 965 0 9 -- Chart
1971 10 7 12 17.2 114.6 965 0 9 -- Chart
1971 10 7 18 17.4 113.1 965 0 9 -- Chart
1971 10 8 00 17.4 112.0 970 0 9 -- Chart
1971 10 8 06 17.6 110.9 970 0 9 -- Chart
1971 10 8 12 17.7 109.8 970 0 9 -- Chart
1971 10 8 18 17.8 108.8 970 0 9 -- Chart
1971 10 9 00 18.0 107.8 975 0 9 -- Chart
1971 10 9 06 18.0 106.0 970 0 9 -- Chart
1971 10 9 12 18.0 105.0 985 0 9 -- Chart
1971 10 9 18 18.0 104.0 1006 0 2 -- Chart
Japan Meteorological Agency Best Track Data | Correction Date : 1989-06-01
< Typhoon 197130 1971 Season Typhoon 197132 >

Help